Home   Weather   Auckland Airport   Past weeks
Flag for New Zealand

Past Weather in Auckland Airport, New Zealand — Yesterday and Last 2 Weeks

Currently: 63 °F. Passing clouds. (Weather station: Auckland Airport, New Zealand). See more current weather

Past Weather in Auckland Airport — Graph

°F

Auckland Airport Temperature Yesterday

Maximum temperature yesterday: 73 °F (at 3:30 pm)
Minimum temperature yesterday: 63 °F (at 10:30 pm)
Average temperature yesterday: 68 °F

High & Low Weather Summary for the Past Weeks

 TemperatureHumidityPressure
High81 °F (Feb 15, 3:30 pm)100% (Feb 25, 9:00 am)30.33 "Hg (Feb 25, 9:00 am)
Low55 °F (Feb 22, 4:30 am)37% (Feb 15, 3:30 pm)29.68 "Hg (Feb 27, 2:30 am)
Average68 °F74%30.13 "Hg
* Reported Feb 12 11:00 pm — Feb 27 11:30 pm, Auckland Airport. Weather by CustomWeather, © 2024

Note: Actual official high and low records may vary slightly from our data, if they occured in-between our weather recording intervals... More about our weather records

Auckland Airport Weather History for the Previous 24 Hours

Scroll right to see more
 ConditionsComfort  
Time TempWeatherWind HumidityBarometerVisibility
11:30 pm
Tue, Feb 27
63 °FMild.2 mph83%29.86 "HgN/A
11:00 pm63 °FPassing clouds.3 mph83%29.86 "HgN/A
10:30 pm63 °FMild.2 mph83%29.86 "HgN/A
10:00 pm64 °FPassing clouds.2 mph78%29.83 "HgN/A
9:30 pm64 °FPassing clouds.6 mph73%29.83 "HgN/A
9:00 pm64 °FMild.7 mph73%29.83 "HgN/A
8:30 pm64 °FMild.9 mph73%29.83 "HgN/A
8:00 pm66 °FPassing clouds.10 mph68%29.80 "HgN/A
7:30 pm68 °FPassing clouds.12 mph64%29.80 "HgN/A
7:00 pm70 °FMild.14 mph60%29.80 "HgN/A
6:30 pm70 °FMild.17 mph57%29.80 "HgN/A
6:00 pm72 °FMild.18 mph53%29.80 "HgN/A
5:30 pm72 °FScattered clouds.20 mph57%29.77 "HgN/A
5:00 pm72 °FOvercast.20 mph57%29.77 "HgN/A
4:30 pm72 °FOvercast.18 mph65%29.77 "HgN/A
4:00 pm73 °FPassing clouds.16 mph53%29.77 "HgN/A
3:30 pm73 °FPassing clouds.15 mph61%29.77 "HgN/A
3:00 pm72 °FCloudy.16 mph69%29.80 "HgN/A
2:30 pm72 °FPartly sunny.14 mph69%29.80 "HgN/A
2:00 pm70 °FPartly sunny.10 mph78%29.80 "HgN/A
12:30 pm66 °FBroken clouds.10 mph94%29.80 "HgN/A
12:00 pm66 °FDrizzle. Mostly cloudy.14 mph88%29.80 "Hg3 mi
11:30 am64 °FPartly sunny.16 mph94%29.80 "HgN/A
11:00 am66 °FLight rain. Mostly cloudy.16 mph94%29.77 "HgN/A
10:30 am66 °FLow clouds.17 mph94%29.77 "HgN/A
10:00 am68 °FBroken clouds.17 mph94%29.74 "HgN/A
9:30 am70 °FPartly sunny.10 mph88%29.74 "HgN/A
9:00 am70 °FBroken clouds.5 mph94%29.74 "HgN/A
8:30 am68 °FScattered clouds.6 mph94%29.74 "HgN/A
8:00 am68 °FLight rain. Mostly cloudy.6 mph94%29.74 "HgN/A
7:30 am68 °FRain. Fog.9 mph94%29.71 "Hg1 mi
7:00 am68 °FMostly cloudy.7 mph94%29.71 "HgN/A
6:30 am68 °FPassing clouds.12 mph94%29.71 "HgN/A
6:00 am66 °FPassing clouds.12 mph100%29.68 "HgN/A
5:30 am66 °FLight rain. Partly cloudy.13 mph100%29.68 "HgN/A
5:00 am68 °FLight rain. Fog.8 mph94%29.68 "Hg3 mi
4:30 am68 °FLight rain. Fog.3 mph100%29.68 "Hg2 mi
4:00 am68 °FLight rain. Mostly cloudy.5 mph100%29.68 "HgN/A
3:30 am68 °FMostly cloudy.6 mph100%29.68 "HgN/A
3:00 am68 °FLight rain. Fog.7 mph100%29.68 "Hg2 mi
2:30 am68 °FRain. Fog.8 mph94%29.68 "Hg1 mi
2:00 am68 °FLight rain. Mostly cloudy.6 mph94%29.71 "Hg4 mi
1:30 am66 °FRain. Fog.9 mph100%29.71 "Hg1 mi
1:00 am66 °FLight rain. Passing clouds.10 mph100%29.71 "HgN/A
12:30 am66 °FPassing clouds.9 mph100%29.74 "HgN/A
12:00 am66 °FDrizzle. Fog.10 mph94%29.74 "Hg3 mi
Weather by CustomWeather, © 2024

See weather overview